createdAt,value
2023-01-01T00:00:19.183Z,13.52
2023-01-01T00:03:20.986Z,13.10
2023-01-01T00:06:23.015Z,12.66
2023-01-01T00:09:42.918Z,12.51
2023-01-01T00:12:44.513Z,12.61
2023-01-01T00:15:46.066Z,12.28
2023-01-01T00:18:47.620Z,12.06
2023-01-01T00:21:49.265Z,11.83
2023-01-01T00:24:50.907Z,11.58
2023-01-01T00:27:52.583Z,11.32
2023-01-01T00:30:54.228Z,11.19
2023-01-01T00:33:56.717Z,10.97
2023-01-01T00:36:58.305Z,10.88
2023-01-01T00:39:59.860Z,10.86
2023-01-01T00:43:01.418Z,10.73
2023-01-01T00:46:04.905Z,10.65
2023-01-01T00:49:06.570Z,10.60
2023-01-01T00:52:08.273Z,10.59
2023-01-01T00:55:10.593Z,10.52
2023-01-01T00:58:12.572Z,10.45
2023-01-01T01:01:14.389Z,10.50
2023-01-01T01:04:16.020Z,10.48
2023-01-01T01:07:17.571Z,10.73
2023-01-01T01:10:21.566Z,10.66
2023-01-01T01:13:23.156Z,10.48
2023-01-01T01:16:34.442Z,10.33
2023-01-01T01:19:36.028Z,10.23
2023-01-01T01:22:37.704Z,10.17
2023-01-01T01:25:39.308Z,10.17
2023-01-01T01:28:47.082Z,10.18
2023-01-01T01:31:51.342Z,10.18
2023-01-01T01:34:52.878Z,10.19
2023-01-01T01:37:54.425Z,10.09
2023-01-01T01:40:56.071Z,10.10
2023-01-01T01:44:01.689Z,10.14
2023-01-01T01:47:03.338Z,10.25
2023-01-01T01:50:09.192Z,10.81
2023-01-01T01:53:16.329Z,12.15
2023-01-01T01:56:24.169Z,12.80
2023-01-01T01:59:30.075Z,13.25
2023-01-01T02:02:38.728Z,13.53
2023-01-01T02:05:41.491Z,13.57
2023-01-01T02:08:43.099Z,13.40
2023-01-01T02:11:44.712Z,13.25
2023-01-01T02:14:46.341Z,13.08
2023-01-01T02:18:01.109Z,12.95
2023-01-01T02:21:11.475Z,12.67
2023-01-01T02:24:29.146Z,12.25
2023-01-01T02:27:59.076Z,11.73
2023-01-01T02:31:02.149Z,11.41
2023-01-01T02:34:09.341Z,11.25
2023-01-01T02:37:14.507Z,10.91
2023-01-01T02:40:19.343Z,10.71
2023-01-01T02:43:24.748Z,10.57
2023-01-01T02:46:34.855Z,10.35
2023-01-01T02:49:41.509Z,10.11
2023-01-01T02:52:50.272Z,10.01
2023-01-01T02:55:54.648Z,9.93
2023-01-01T02:59:34.433Z,9.77
2023-01-01T03:03:05.558Z,9.66
2023-01-01T03:06:24.856Z,9.61
2023-01-01T03:09:50.746Z,9.51
2023-01-01T03:13:03.393Z,9.44
2023-01-01T03:16:20.076Z,9.40
2023-01-01T03:19:29.047Z,9.42
2023-01-01T03:25:47.508Z,9.44
2023-01-01T03:28:57.556Z,9.43
2023-01-01T03:32:01.877Z,9.38
2023-01-01T03:35:04.046Z,9.34
2023-01-01T03:38:10.958Z,9.31
2023-01-01T03:41:22.495Z,9.28
2023-01-01T03:44:35.386Z,9.30
2023-01-01T03:47:37.608Z,9.29
2023-01-01T03:51:01.319Z,9.31
2023-01-01T03:54:35.832Z,9.26
2023-01-01T03:58:09.846Z,9.26
2023-01-01T04:01:18.214Z,9.21
2023-01-01T04:04:20.446Z,9.18
2023-01-01T04:07:23.268Z,9.11
2023-01-01T04:10:25.920Z,8.99
2023-01-01T04:13:27.534Z,8.97
2023-01-01T04:16:29.143Z,8.99
2023-01-01T04:19:31.057Z,9.06
2023-01-01T04:22:32.615Z,9.06
2023-01-01T04:25:34.352Z,9.05
2023-01-01T04:28:36.067Z,9.09
2023-01-01T04:31:38.327Z,9.09
2023-01-01T04:34:40.223Z,9.13
2023-01-01T04:37:43.901Z,9.53
2023-01-01T04:40:45.627Z,9.54
2023-01-01T04:43:50.833Z,9.50
2023-01-01T04:46:56.901Z,9.37
2023-01-01T04:50:01.606Z,9.33
2023-01-01T04:53:03.117Z,9.23
2023-01-01T04:56:05.438Z,9.22
2023-01-01T04:59:07.092Z,9.22
2023-01-01T05:02:08.750Z,9.22
2023-01-01T05:05:13.475Z,9.68
2023-01-01T05:08:14.971Z,9.85
2023-01-01T05:11:19.749Z,10.44
2023-01-01T05:14:21.444Z,11.06
2023-01-01T05:17:23.073Z,11.16
2023-01-01T05:20:25.079Z,11.21
2023-01-01T05:23:26.730Z,10.96
2023-01-01T05:26:31.864Z,11.39
2023-01-01T05:29:33.422Z,11.70
2023-01-01T05:32:37.338Z,12.09
2023-01-01T05:35:39.150Z,12.24
2023-01-01T05:38:40.760Z,12.36
2023-01-01T05:41:42.371Z,12.45
2023-01-01T05:44:43.963Z,12.75
2023-01-01T05:47:45.496Z,12.98
2023-01-01T05:50:47.052Z,13.17
2023-01-01T05:53:48.875Z,13.22
2023-01-01T05:56:50.466Z,13.28
2023-01-01T05:59:51.995Z,13.18
2023-01-01T06:02:54.953Z,13.26
2023-01-01T06:05:56.668Z,13.37
2023-01-01T06:09:00.399Z,13.46
2023-01-01T06:12:01.938Z,13.29
2023-01-01T06:15:03.713Z,13.46
2023-01-01T06:18:05.338Z,13.47
2023-01-01T06:21:12.387Z,13.21
2023-01-01T06:24:14.077Z,12.88
2023-01-01T06:27:15.656Z,12.49
2023-01-01T06:30:17.375Z,12.36
2023-01-01T06:33:18.922Z,12.43
2023-01-01T06:36:23.119Z,11.99
2023-01-01T06:39:24.633Z,11.47
2023-01-01T06:42:30.471Z,11.38
2023-01-01T06:45:35.233Z,11.09
2023-01-01T06:48:37.696Z,10.71
2023-01-01T06:51:43.871Z,10.45
2023-01-01T06:54:45.400Z,10.18
2023-01-01T06:57:47.083Z,9.96
2023-01-01T07:00:48.695Z,9.77
2023-01-01T07:03:54.811Z,9.67
2023-01-01T07:06:56.423Z,9.59
2023-01-01T07:09:58.009Z,9.52
2023-01-01T07:13:00.822Z,9.43
2023-01-01T07:16:08.374Z,9.37
2023-01-01T07:19:13.874Z,9.29
2023-01-01T07:22:15.486Z,9.15
2023-01-01T07:25:17.204Z,9.05
2023-01-01T07:28:20.215Z,9.11
2023-01-01T07:31:21.814Z,9.09
2023-01-01T07:34:23.930Z,9.05
2023-01-01T07:37:26.357Z,9.06
2023-01-01T07:40:27.882Z,9.12
2023-01-01T07:43:29.477Z,9.11
2023-01-01T07:46:31.385Z,9.14
2023-01-01T07:49:33.067Z,9.19
2023-01-01T07:52:34.569Z,9.28
2023-01-01T07:55:36.135Z,9.35
2023-01-01T07:58:41.647Z,9.41
2023-01-01T08:01:43.263Z,9.42
2023-01-01T08:04:44.896Z,9.54
2023-01-01T08:07:48.384Z,9.67
2023-01-01T08:10:50.043Z,9.91
2023-01-01T08:13:51.544Z,10.09
2023-01-01T08:16:53.054Z,10.23
2023-01-01T08:19:54.641Z,10.29
2023-01-01T08:23:00.150Z,10.28
2023-01-01T08:26:04.720Z,10.31
2023-01-01T08:29:07.119Z,10.30
2023-01-01T08:32:12.582Z,10.34
2023-01-01T08:35:14.145Z,10.43
2023-01-01T08:38:15.647Z,10.51
2023-01-01T08:41:17.148Z,10.57
2023-01-01T08:44:19.651Z,10.62
2023-01-01T08:47:26.186Z,10.69
2023-01-01T08:50:27.780Z,10.72
2023-01-01T08:53:30.993Z,10.81
2023-01-01T08:56:32.652Z,10.90
2023-01-01T08:59:34.294Z,10.99
2023-01-01T09:02:36.045Z,11.04
2023-01-01T09:05:37.919Z,11.18
2023-01-01T09:08:40.766Z,11.19
2023-01-01T09:11:57.246Z,11.17
2023-01-01T09:14:58.862Z,11.22
2023-01-01T09:18:00.414Z,11.24
2023-01-01T09:21:02.019Z,11.32
2023-01-01T09:24:03.903Z,11.47
2023-01-01T09:27:05.812Z,11.67
2023-01-01T09:30:08.408Z,11.85
2023-01-01T09:33:10.051Z,11.97
2023-01-01T09:36:32.589Z,12.17
2023-01-01T09:39:34.110Z,12.38
2023-01-01T09:42:43.587Z,12.61
2023-01-01T09:46:01.563Z,12.75
2023-01-01T09:49:13.265Z,12.97
2023-01-01T09:52:16.338Z,13.08
2023-01-01T09:55:27.429Z,13.20
2023-01-01T09:58:38.047Z,13.33
2023-01-01T10:02:04.865Z,13.42
2023-01-01T10:05:25.075Z,13.54
2023-01-01T10:08:41.683Z,13.66
2023-01-01T10:11:53.186Z,13.79
2023-01-01T10:15:04.253Z,13.93
2023-01-01T10:18:17.627Z,14.01
2023-01-01T10:21:26.179Z,14.16
2023-01-01T10:24:40.924Z,14.29
2023-01-01T10:27:57.129Z,14.35
2023-01-01T10:31:32.790Z,14.48
2023-01-01T10:34:34.438Z,14.60
2023-01-01T10:37:42.262Z,14.69
2023-01-01T10:40:44.482Z,14.78
2023-01-01T10:43:47.687Z,14.80
2023-01-01T10:46:56.990Z,14.72
2023-01-01T10:50:07.646Z,14.70
2023-01-01T10:53:22.102Z,14.72
2023-01-01T10:56:24.967Z,14.80
2023-01-01T10:59:38.200Z,14.82
2023-01-01T11:02:39.844Z,14.88
2023-01-01T11:06:01.169Z,14.88
2023-01-01T11:09:19.291Z,14.90
2023-01-01T11:13:03.556Z,14.99
2023-01-01T11:15:56.372Z,15.13
2023-01-01T11:19:04.344Z,15.25
2023-01-01T11:22:06.919Z,15.34
2023-01-01T11:25:23.755Z,15.42
2023-01-01T11:28:26.105Z,15.43
2023-01-01T11:31:34.264Z,15.55
2023-01-01T11:34:43.255Z,15.67
2023-01-01T11:37:45.991Z,15.69
2023-01-01T11:40:51.655Z,15.70
2023-01-01T11:43:55.474Z,15.76
2023-01-01T11:46:58.077Z,15.95
2023-01-01T11:50:17.686Z,16.08
2023-01-01T11:53:29.483Z,16.17
2023-01-01T11:56:38.024Z,16.15
2023-01-01T11:59:51.758Z,16.21
2023-01-01T12:03:01.499Z,16.44
2023-01-01T12:06:19.252Z,16.57
2023-01-01T12:09:48.045Z,16.71
2023-01-01T12:13:02.258Z,16.93
2023-01-01T12:16:13.495Z,17.17
2023-01-01T12:19:30.978Z,17.50
2023-01-01T12:22:32.818Z,17.94
2023-01-01T12:25:47.170Z,18.17
2023-01-01T12:29:03.678Z,18.04
2023-01-01T12:32:26.753Z,17.81
2023-01-01T12:35:49.741Z,17.78
2023-01-01T12:38:51.198Z,17.60
2023-01-01T12:42:10.365Z,17.56
2023-01-01T12:45:30.484Z,17.73
2023-01-01T12:48:51.617Z,17.83
2023-01-01T12:52:02.680Z,17.81
2023-01-01T12:55:33.514Z,17.69
2023-01-01T12:58:43.368Z,17.52
2023-01-01T13:01:46.061Z,17.25
2023-01-01T13:04:52.988Z,16.98
2023-01-01T13:08:00.242Z,16.74
2023-01-01T13:11:03.168Z,16.68
2023-01-01T13:14:04.691Z,16.68
2023-01-01T13:17:20.897Z,16.65
2023-01-01T13:20:26.200Z,16.75
2023-01-01T13:23:34.780Z,16.84
2023-01-01T13:26:37.514Z,16.85
2023-01-01T13:29:44.372Z,16.93
2023-01-01T13:33:21.524Z,17.08
2023-01-01T13:36:26.691Z,17.09
2023-01-01T13:40:12.892Z,17.00
2023-01-01T13:43:31.863Z,17.14
2023-01-01T13:47:01.132Z,17.21
2023-01-01T13:50:12.115Z,17.19
2023-01-01T13:53:39.372Z,17.21
2023-01-01T13:57:02.810Z,17.23
2023-01-01T14:00:05.538Z,17.24
2023-01-01T14:03:17.416Z,17.26
2023-01-01T14:06:41.716Z,17.21
2023-01-01T14:09:43.276Z,17.17
2023-01-01T14:12:45.162Z,17.10
2023-01-01T14:15:55.470Z,17.22
2023-01-01T14:19:23.153Z,17.30
2023-01-01T14:22:24.719Z,17.65
2023-01-01T14:25:28.994Z,17.49
2023-01-01T14:28:37.434Z,17.08
2023-01-01T14:31:44.716Z,16.77
2023-01-01T14:34:46.369Z,16.63
2023-01-01T14:37:48.015Z,16.54
2023-01-01T14:41:00.118Z,16.33
2023-01-01T14:44:11.791Z,16.04
2023-01-01T14:47:29.304Z,15.81
2023-01-01T14:50:34.037Z,15.53
2023-01-01T14:53:35.731Z,15.30
2023-01-01T14:56:37.970Z,15.08
2023-01-01T14:59:47.501Z,14.92
2023-01-01T15:02:49.260Z,14.71
2023-01-01T15:06:02.235Z,14.56
2023-01-01T15:09:04.217Z,14.46
2023-01-01T15:12:06.019Z,14.35
2023-01-01T15:15:44.546Z,14.18
2023-01-01T15:18:53.250Z,13.91
2023-01-01T15:21:55.048Z,13.71
2023-01-01T15:24:58.473Z,13.43
2023-01-01T15:28:00.170Z,13.23
2023-01-01T15:31:01.885Z,13.07
2023-01-01T15:34:04.908Z,12.90
2023-01-01T15:37:28.141Z,12.70
2023-01-01T15:40:33.701Z,12.52
2023-01-01T15:43:35.329Z,12.36
2023-01-01T15:46:36.899Z,12.24
2023-01-01T15:49:38.485Z,12.16
2023-01-01T15:52:43.486Z,12.03
2023-01-01T15:55:51.631Z,11.92
2023-01-01T15:59:03.827Z,11.77
2023-01-01T16:02:19.824Z,11.66
2023-01-01T16:05:23.927Z,11.49
2023-01-01T16:08:25.762Z,11.36
2023-01-01T16:11:30.641Z,11.21
2023-01-01T16:14:32.258Z,11.07
2023-01-01T16:17:34.197Z,10.96
2023-01-01T16:20:35.729Z,10.92
2023-01-01T16:23:37.339Z,10.79
2023-01-01T16:26:38.803Z,10.75
2023-01-01T16:29:43.367Z,10.70
2023-01-01T16:32:45.731Z,10.69
2023-01-01T16:35:47.347Z,10.63
2023-01-01T16:38:49.107Z,10.57
2023-01-01T16:41:50.675Z,10.62
2023-01-01T16:44:52.203Z,10.65
2023-01-01T16:47:55.145Z,10.66
2023-01-01T16:50:56.631Z,10.57
2023-01-01T16:54:00.700Z,10.42
2023-01-01T16:57:02.249Z,10.36
2023-01-01T17:00:04.126Z,10.35
2023-01-01T17:03:05.864Z,10.31
2023-01-01T17:06:09.807Z,10.27
2023-01-01T17:09:11.349Z,10.27
2023-01-01T17:12:13.156Z,10.28
2023-01-01T17:15:14.752Z,10.21
2023-01-01T17:18:16.278Z,10.20
2023-01-01T17:21:19.116Z,10.31
2023-01-01T17:24:21.386Z,10.28
2023-01-01T17:27:22.992Z,10.27
2023-01-01T17:30:26.408Z,10.26
2023-01-01T17:33:29.178Z,10.24
2023-01-01T17:36:30.720Z,10.25
2023-01-01T17:39:32.254Z,10.26
2023-01-01T17:42:34.703Z,10.27
2023-01-01T17:45:37.659Z,10.20
2023-01-01T17:48:51.673Z,10.08
2023-01-01T17:51:53.398Z,10.07
2023-01-01T17:54:54.907Z,9.97
2023-01-01T17:57:56.475Z,9.90
2023-01-01T18:01:11.486Z,9.85
2023-01-01T18:04:13.185Z,9.78
2023-01-01T18:07:14.753Z,9.75
2023-01-01T18:10:16.429Z,9.71
2023-01-01T18:13:20.115Z,9.66
2023-01-01T18:16:33.559Z,9.69
2023-01-01T18:19:38.935Z,9.61
2023-01-01T18:22:46.434Z,9.55
2023-01-01T18:25:54.048Z,9.44
2023-01-01T18:29:02.395Z,9.43
2023-01-01T18:32:11.485Z,9.40
2023-01-01T18:35:13.118Z,9.38
2023-01-01T18:38:18.936Z,9.38
2023-01-01T18:41:38.908Z,9.34
2023-01-01T18:44:41.280Z,9.31
2023-01-01T18:47:45.799Z,9.28
2023-01-01T18:50:47.375Z,9.25
2023-01-01T18:53:50.609Z,9.23
2023-01-01T18:57:02.825Z,9.19
2023-01-01T19:04:08.661Z,9.16
2023-01-01T19:07:26.840Z,9.17
2023-01-01T19:10:35.944Z,9.06
2023-01-01T19:13:42.246Z,9.30
2023-01-01T19:20:30.685Z,9.50
2023-01-01T19:23:32.449Z,9.32
2023-01-01T19:26:36.938Z,9.54
2023-01-01T19:29:42.587Z,9.41
2023-01-01T19:32:47.232Z,9.40
2023-01-01T19:35:48.800Z,9.35
2023-01-01T19:38:50.892Z,9.38
2023-01-01T19:41:52.434Z,9.33
2023-01-01T19:44:54.615Z,9.30
2023-01-01T19:47:56.101Z,9.35
2023-01-01T19:50:57.832Z,9.39
2023-01-01T19:53:59.463Z,9.42
2023-01-01T19:57:01.004Z,9.40
2023-01-01T20:00:02.619Z,9.41
2023-01-01T20:06:36.418Z,9.40
2023-01-01T20:09:38.109Z,9.35
2023-01-01T20:12:39.672Z,9.32
2023-01-01T20:15:46.527Z,9.38
2023-01-01T20:18:49.428Z,9.37
2023-01-01T20:22:09.564Z,9.37
2023-01-01T20:25:11.500Z,9.37
2023-01-01T20:28:31.640Z,9.34
2023-01-01T20:31:33.192Z,9.25
2023-01-01T20:34:34.885Z,9.16
2023-01-01T20:37:36.547Z,9.09
2023-01-01T20:40:38.232Z,9.09
2023-01-01T20:43:39.809Z,9.08
2023-01-01T20:46:42.336Z,9.13
2023-01-01T20:49:44.046Z,9.17
2023-01-01T20:52:45.759Z,9.39
2023-01-01T20:55:47.242Z,9.56
2023-01-01T20:58:54.535Z,9.63
2023-01-01T21:01:59.877Z,9.67
2023-01-01T21:05:01.907Z,9.62
2023-01-01T21:08:03.633Z,9.57
2023-01-01T21:11:07.489Z,9.52
2023-01-01T21:14:09.240Z,9.50
2023-01-01T21:17:20.927Z,9.53
2023-01-01T21:20:22.567Z,9.51
2023-01-01T21:23:29.043Z,9.63
2023-01-01T21:26:36.508Z,9.68
2023-01-01T21:29:44.408Z,9.71
2023-01-01T21:32:48.089Z,9.67
2023-01-01T21:35:49.598Z,9.70
2023-01-01T21:38:52.014Z,9.61
2023-01-01T21:41:59.474Z,9.50
2023-01-01T21:45:01.236Z,9.40
2023-01-01T21:48:16.083Z,9.42
2023-01-01T21:51:37.561Z,9.46
2023-01-01T21:54:39.516Z,9.41
2023-01-01T21:57:41.047Z,9.34
2023-01-01T22:00:42.943Z,9.33
2023-01-01T22:03:44.631Z,9.42
2023-01-01T22:07:17.842Z,9.48
2023-01-01T22:10:34.921Z,9.66
2023-01-01T22:13:36.459Z,9.66
2023-01-01T22:16:38.089Z,9.62
2023-01-01T22:19:39.755Z,9.62
2023-01-01T22:22:42.736Z,9.64
2023-01-01T22:25:44.317Z,9.75
2023-01-01T22:28:51.682Z,9.73
2023-01-01T22:32:01.491Z,9.61
2023-01-01T22:35:14.991Z,9.60
2023-01-01T22:38:20.866Z,9.63
2023-01-01T22:41:22.391Z,9.58
2023-01-01T22:44:26.920Z,9.59
2023-01-01T22:47:34.556Z,9.56
2023-01-01T22:50:36.767Z,9.48
2023-01-01T22:53:38.327Z,9.50
2023-01-01T22:56:39.838Z,9.42
2023-01-01T22:59:41.403Z,9.39
2023-01-01T23:02:43.602Z,9.47
2023-01-01T23:05:45.208Z,9.54
2023-01-01T23:08:47.083Z,9.65
2023-01-01T23:11:48.637Z,9.66
2023-01-01T23:15:08.735Z,9.75
2023-01-01T23:18:10.223Z,9.72
2023-01-01T23:21:19.994Z,9.62
2023-01-01T23:24:24.546Z,9.61
2023-01-01T23:27:26.657Z,9.56
2023-01-01T23:30:28.210Z,9.56
2023-01-01T23:33:30.884Z,9.58
2023-01-01T23:36:32.675Z,9.53
2023-01-01T23:39:34.220Z,9.53
2023-01-01T23:42:35.802Z,9.56
2023-01-01T23:45:38.144Z,9.65
2023-01-01T23:48:41.835Z,9.70
2023-01-01T23:51:43.366Z,9.77
2023-01-01T23:54:44.898Z,9.81
2023-01-01T23:57:46.491Z,9.85
